createdAt,value
2022-09-13T00:02:19.972Z,0.90
2022-09-13T00:12:21.498Z,0.88
2022-09-13T00:22:23.015Z,0.98
2022-09-13T00:32:24.480Z,0.90
2022-09-13T00:42:27.511Z,0.80
2022-09-13T00:52:30.983Z,0.70
2022-09-13T01:02:32.463Z,0.80
2022-09-13T01:12:57.251Z,0.80
2022-09-13T01:23:12.184Z,0.93
2022-09-13T01:33:32.106Z,0.80
2022-09-13T01:44:04.767Z,0.88
2022-09-13T01:54:38.616Z,0.85
2022-09-13T02:04:43.458Z,1.00
2022-09-13T02:14:48.237Z,1.00
2022-09-13T02:24:55.414Z,1.00
2022-09-13T02:35:10.031Z,0.80
2022-09-13T02:45:14.046Z,0.90
2022-09-13T02:55:25.861Z,0.90
2022-09-13T03:05:27.305Z,0.70
2022-09-13T03:15:47.787Z,1.20
2022-09-13T03:26:04.512Z,0.80
2022-09-13T03:36:16.314Z,0.90
2022-09-13T03:46:22.380Z,0.93
2022-09-13T03:56:24.061Z,0.90
2022-09-13T04:06:25.592Z,0.70
2022-09-13T04:16:27.098Z,1.02
2022-09-13T04:26:28.590Z,0.98
2022-09-13T04:36:30.052Z,0.95
2022-09-13T04:46:31.514Z,1.00
2022-09-13T04:56:33.012Z,0.90
2022-09-13T05:06:34.972Z,1.00
2022-09-13T05:16:36.923Z,0.65
2022-09-13T05:26:38.533Z,0.90
2022-09-13T05:36:40.964Z,1.00
2022-09-13T05:46:43.115Z,0.90
2022-09-13T05:56:44.560Z,0.90
2022-09-13T06:06:46.040Z,1.00
2022-09-13T06:16:47.548Z,0.65
2022-09-13T06:26:48.984Z,0.90
2022-09-13T06:36:50.485Z,1.00
2022-09-13T06:46:51.917Z,0.68
2022-09-13T06:56:53.554Z,0.70
2022-09-13T07:06:55.003Z,0.90
2022-09-13T07:16:56.544Z,0.90
2022-09-13T07:26:58.146Z,0.70
2022-09-13T07:36:59.627Z,0.75
2022-09-13T07:47:01.040Z,0.80
2022-09-13T07:57:02.557Z,0.75
2022-09-13T08:07:04.096Z,0.73
2022-09-13T08:17:06.713Z,0.85
2022-09-13T08:27:08.153Z,0.80
2022-09-13T08:37:10.558Z,0.80
2022-09-13T08:47:33.265Z,0.80
2022-09-13T08:57:52.148Z,0.70
2022-09-13T09:07:59.344Z,0.70
2022-09-13T09:18:04.756Z,0.75
2022-09-13T09:28:14.641Z,0.68
2022-09-13T09:38:27.634Z,0.63
2022-09-13T09:48:39.413Z,0.63
2022-09-13T09:58:43.430Z,0.80
2022-09-13T10:08:55.378Z,0.70
2022-09-13T10:19:29.305Z,0.70
2022-09-13T10:29:31.630Z,0.63
2022-09-13T10:39:35.756Z,0.57
2022-09-13T10:49:57.564Z,0.70
2022-09-13T10:59:59.068Z,0.60
2022-09-13T11:10:06.952Z,0.52
2022-09-13T11:20:39.273Z,0.70
2022-09-13T11:31:03.368Z,0.60
2022-09-13T11:41:28.203Z,0.50
2022-09-13T11:51:43.251Z,0.60
2022-09-13T12:01:52.195Z,0.43
2022-09-13T12:12:04.233Z,0.50
2022-09-13T12:22:07.006Z,0.52
2022-09-13T12:32:09.983Z,0.55
2022-09-13T12:42:30.995Z,0.50
2022-09-13T12:52:32.893Z,0.38
2022-09-13T13:02:37.427Z,0.40
2022-09-13T13:12:40.311Z,0.40
2022-09-13T13:22:44.825Z,0.52
2022-09-13T13:33:09.881Z,0.67
2022-09-13T13:43:32.663Z,0.50
2022-09-13T13:53:36.810Z,0.60
2022-09-13T14:03:51.197Z,0.30
2022-09-13T14:13:52.667Z,0.60
2022-09-13T14:24:17.177Z,0.50
2022-09-13T14:34:34.034Z,0.87
2022-09-13T14:44:35.476Z,0.50
2022-09-13T14:54:43.714Z,0.30
2022-09-13T15:04:56.088Z,0.50
2022-09-13T15:15:36.170Z,0.30
2022-09-13T15:25:37.596Z,0.30
2022-09-13T15:35:40.954Z,0.82
2022-09-13T15:45:42.472Z,0.50
2022-09-13T15:55:43.997Z,0.57
2022-09-13T16:05:45.496Z,0.40
2022-09-13T16:15:47.033Z,0.40
2022-09-13T16:25:52.289Z,0.30
2022-09-13T16:35:53.836Z,0.40
2022-09-13T16:45:55.265Z,0.40
2022-09-13T16:56:14.189Z,0.30
2022-09-13T17:06:17.853Z,0.40
2022-09-13T17:16:22.547Z,0.40
2022-09-13T17:26:24.116Z,0.25
2022-09-13T17:36:26.490Z,0.30
2022-09-13T17:46:30.108Z,0.40
2022-09-13T17:56:43.016Z,0.25
2022-09-13T18:06:44.805Z,0.40
2022-09-13T18:16:47.022Z,0.30
2022-09-13T18:26:48.501Z,0.40
2022-09-13T18:36:50.062Z,0.40
2022-09-13T18:46:52.930Z,0.40
2022-09-13T18:56:55.095Z,0.30
2022-09-13T19:06:56.604Z,0.30
2022-09-13T19:17:01.146Z,0.30
2022-09-13T19:27:02.679Z,0.30
2022-09-13T19:37:04.197Z,0.20
2022-09-13T19:47:53.238Z,0.30
2022-09-13T19:57:28.802Z,0.30
2022-09-13T20:07:30.301Z,0.20
2022-09-13T20:17:31.743Z,0.30
2022-09-13T20:27:33.222Z,0.30
2022-09-13T20:37:34.644Z,0.30
2022-09-13T20:47:36.504Z,0.30
2022-09-13T20:57:38.421Z,0.30
2022-09-13T21:07:58.553Z,0.25
2022-09-13T21:18:00.016Z,0.22
2022-09-13T21:28:01.709Z,0.30
2022-09-13T21:38:03.180Z,0.20
2022-09-13T21:48:04.700Z,0.30
2022-09-13T21:58:09.970Z,0.10
2022-09-13T22:08:11.473Z,0.30
2022-09-13T22:18:12.989Z,0.30
2022-09-13T22:28:14.490Z,0.30
2022-09-13T22:38:16.135Z,0.43
2022-09-13T22:48:18.952Z,0.20
2022-09-13T22:58:20.402Z,0.22
2022-09-13T23:08:22.360Z,0.30
2022-09-13T23:18:23.851Z,0.25
2022-09-13T23:28:25.287Z,0.35
2022-09-13T23:38:26.763Z,0.20
2022-09-13T23:48:28.353Z,0.20
2022-09-13T23:58:30.996Z,0.20
